sensor_id;sensor_type;location;lat;lon;timestamp;temperature;humidity
11055;DHT22;5580;50.106;8.702;2022-10-26T00:03:34;14.50;99.90
11055;DHT22;5580;50.106;8.702;2022-10-26T00:08:29;14.40;99.90
11055;DHT22;5580;50.106;8.702;2022-10-26T00:10:56;14.40;99.90
11055;DHT22;5580;50.106;8.702;2022-10-26T00:13:22;14.40;99.90
11055;DHT22;5580;50.106;8.702;2022-10-26T00:15:48;14.50;99.90
11055;DHT22;5580;50.106;8.702;2022-10-26T00:18:13;14.40;99.90
11055;DHT22;5580;50.106;8.702;2022-10-26T00:20:39;14.50;99.90
11055;DHT22;5580;50.106;8.702;2022-10-26T00:23:04;14.50;99.90
11055;DHT22;5580;50.106;8.702;2022-10-26T00:25:30;14.50;99.90
11055;DHT22;5580;50.106;8.702;2022-10-26T00:27:55;14.50;99.90
11055;DHT22;5580;50.106;8.702;2022-10-26T00:30:21;14.50;99.90
11055;DHT22;5580;50.106;8.702;2022-10-26T00:32:47;14.50;99.90
11055;DHT22;5580;50.106;8.702;2022-10-26T00:35:12;14.40;99.90
11055;DHT22;5580;50.106;8.702;2022-10-26T00:37:38;14.40;99.90
11055;DHT22;5580;50.106;8.702;2022-10-26T00:40:04;14.40;99.90
11055;DHT22;5580;50.106;8.702;2022-10-26T00:42:29;14.40;99.90
11055;DHT22;5580;50.106;8.702;2022-10-26T00:44:57;14.40;99.90
11055;DHT22;5580;50.106;8.702;2022-10-26T00:47:35;14.40;99.90
11055;DHT22;5580;50.106;8.702;2022-10-26T00:50:09;14.30;99.90
11055;DHT22;5580;50.106;8.702;2022-10-26T00:52:36;14.30;99.90
11055;DHT22;5580;50.106;8.702;2022-10-26T00:55:02;14.30;99.90
11055;DHT22;5580;50.106;8.702;2022-10-26T00:57:28;14.20;99.90
11055;DHT22;5580;50.106;8.702;2022-10-26T00:59:55;14.10;99.90
11055;DHT22;5580;50.106;8.702;2022-10-26T01:02:22;14.10;99.90
11055;DHT22;5580;50.106;8.702;2022-10-26T01:04:47;14.10;99.90
11055;DHT22;5580;50.106;8.702;2022-10-26T01:07:14;14.00;99.90
11055;DHT22;5580;50.106;8.702;2022-10-26T01:09:39;13.90;99.90
11055;DHT22;5580;50.106;8.702;2022-10-26T01:12:06;13.90;99.90
11055;DHT22;5580;50.106;8.702;2022-10-26T01:14:32;13.80;99.90
11055;DHT22;5580;50.106;8.702;2022-10-26T01:22:30;13.70;99.90
11055;DHT22;5580;50.106;8.702;2022-10-26T01:27:46;13.70;99.90
11055;DHT22;5580;50.106;8.702;2022-10-26T01:30:15;13.60;99.90
11055;DHT22;5580;50.106;8.702;2022-10-26T01:35:34;13.60;99.90
11055;DHT22;5580;50.106;8.702;2022-10-26T01:38:09;13.60;99.90
11055;DHT22;5580;50.106;8.702;2022-10-26T01:40:39;13.60;99.90
11055;DHT22;5580;50.106;8.702;2022-10-26T01:43:09;13.60;99.90
11055;DHT22;5580;50.106;8.702;2022-10-26T01:45:39;13.60;99.90
11055;DHT22;5580;50.106;8.702;2022-10-26T01:48:08;13.50;99.90
11055;DHT22;5580;50.106;8.702;2022-10-26T01:50:35;13.50;99.90
11055;DHT22;5580;50.106;8.702;2022-10-26T01:53:01;13.50;99.90
11055;DHT22;5580;50.106;8.702;2022-10-26T01:55:44;13.60;99.90
11055;DHT22;5580;50.106;8.702;2022-10-26T01:58:28;13.70;99.90
11055;DHT22;5580;50.106;8.702;2022-10-26T02:06:35;13.60;99.90
11055;DHT22;5580;50.106;8.702;2022-10-26T02:09:27;13.60;99.90
11055;DHT22;5580;50.106;8.702;2022-10-26T02:11:57;13.60;99.90
11055;DHT22;5580;50.106;8.702;2022-10-26T02:14:49;13.70;99.90
11055;DHT22;5580;50.106;8.702;2022-10-26T02:20:02;13.60;99.90
11055;DHT22;5580;50.106;8.702;2022-10-26T02:22:41;13.60;99.90
11055;DHT22;5580;50.106;8.702;2022-10-26T02:25:11;13.60;99.90
11055;DHT22;5580;50.106;8.702;2022-10-26T02:27:42;13.60;99.90
11055;DHT22;5580;50.106;8.702;2022-10-26T02:30:11;13.60;99.90
11055;DHT22;5580;50.106;8.702;2022-10-26T02:32:41;13.50;99.90
11055;DHT22;5580;50.106;8.702;2022-10-26T02:35:11;13.50;99.90
11055;DHT22;5580;50.106;8.702;2022-10-26T02:37:38;13.50;99.90
11055;DHT22;5580;50.106;8.702;2022-10-26T02:40:10;13.50;99.90
11055;DHT22;5580;50.106;8.702;2022-10-26T02:42:39;13.40;99.90
11055;DHT22;5580;50.106;8.702;2022-10-26T02:45:10;13.40;99.90
11055;DHT22;5580;50.106;8.702;2022-10-26T02:47:36;13.50;99.90
11055;DHT22;5580;50.106;8.702;2022-10-26T02:50:02;13.60;99.90
11055;DHT22;5580;50.106;8.702;2022-10-26T02:55:11;13.80;99.90
11055;DHT22;5580;50.106;8.702;2022-10-26T02:57:40;13.80;99.90
11055;DHT22;5580;50.106;8.702;2022-10-26T03:00:09;13.80;99.90
11055;DHT22;5580;50.106;8.702;2022-10-26T03:02:35;13.70;99.90
11055;DHT22;5580;50.106;8.702;2022-10-26T03:05:13;13.70;99.90
11055;DHT22;5580;50.106;8.702;2022-10-26T03:07:40;13.60;99.90
11055;DHT22;5580;50.106;8.702;2022-10-26T03:10:06;13.60;99.90
11055;DHT22;5580;50.106;8.702;2022-10-26T03:12:31;13.70;99.90
11055;DHT22;5580;50.106;8.702;2022-10-26T03:14:57;13.80;99.90
11055;DHT22;5580;50.106;8.702;2022-10-26T03:17:22;13.80;99.90
11055;DHT22;5580;50.106;8.702;2022-10-26T03:19:48;13.90;99.90
11055;DHT22;5580;50.106;8.702;2022-10-26T03:22:13;13.90;99.90
11055;DHT22;5580;50.106;8.702;2022-10-26T03:24:39;13.90;99.90
11055;DHT22;5580;50.106;8.702;2022-10-26T03:27:05;13.90;99.90
11055;DHT22;5580;50.106;8.702;2022-10-26T03:29:30;13.90;99.90
11055;DHT22;5580;50.106;8.702;2022-10-26T03:31:56;14.00;99.90
11055;DHT22;5580;50.106;8.702;2022-10-26T03:34:21;14.00;99.90
11055;DHT22;5580;50.106;8.702;2022-10-26T03:36:47;14.00;99.90
11055;DHT22;5580;50.106;8.702;2022-10-26T03:39:13;14.00;99.90
11055;DHT22;5580;50.106;8.702;2022-10-26T03:41:38;14.00;99.90
11055;DHT22;5580;50.106;8.702;2022-10-26T03:44:04;14.00;99.90
11055;DHT22;5580;50.106;8.702;2022-10-26T03:46:30;14.00;99.90
11055;DHT22;5580;50.106;8.702;2022-10-26T03:48:55;14.00;99.90
11055;DHT22;5580;50.106;8.702;2022-10-26T03:51:21;14.00;99.90
11055;DHT22;5580;50.106;8.702;2022-10-26T03:53:46;13.90;99.90
11055;DHT22;5580;50.106;8.702;2022-10-26T03:56:12;13.90;99.90
11055;DHT22;5580;50.106;8.702;2022-10-26T03:58:38;14.00;99.90
11055;DHT22;5580;50.106;8.702;2022-10-26T04:01:03;14.00;99.90
11055;DHT22;5580;50.106;8.702;2022-10-26T04:03:29;14.00;99.90
11055;DHT22;5580;50.106;8.702;2022-10-26T04:05:54;14.00;99.90
11055;DHT22;5580;50.106;8.702;2022-10-26T04:08:20;14.00;99.90
11055;DHT22;5580;50.106;8.702;2022-10-26T04:10:45;13.90;99.90
11055;DHT22;5580;50.106;8.702;2022-10-26T04:13:11;13.80;99.90
11055;DHT22;5580;50.106;8.702;2022-10-26T04:15:37;13.80;99.90
11055;DHT22;5580;50.106;8.702;2022-10-26T04:18:03;13.80;99.90
11055;DHT22;5580;50.106;8.702;2022-10-26T04:20:29;13.70;99.90
11055;DHT22;5580;50.106;8.702;2022-10-26T04:23:00;13.70;99.90
11055;DHT22;5580;50.106;8.702;2022-10-26T04:25:26;13.80;99.90
11055;DHT22;5580;50.106;8.702;2022-10-26T04:27:52;13.80;99.90
11055;DHT22;5580;50.106;8.702;2022-10-26T04:30:18;13.80;99.90
11055;DHT22;5580;50.106;8.702;2022-10-26T04:32:43;13.80;99.90
11055;DHT22;5580;50.106;8.702;2022-10-26T04:35:09;13.90;99.90
11055;DHT22;5580;50.106;8.702;2022-10-26T04:37:34;13.90;99.90
11055;DHT22;5580;50.106;8.702;2022-10-26T04:40:00;13.90;99.90
11055;DHT22;5580;50.106;8.702;2022-10-26T04:42:26;14.00;99.90
11055;DHT22;5580;50.106;8.702;2022-10-26T04:44:51;14.00;99.90
11055;DHT22;5580;50.106;8.702;2022-10-26T04:47:17;14.00;99.90
11055;DHT22;5580;50.106;8.702;2022-10-26T04:49:42;14.00;99.90
11055;DHT22;5580;50.106;8.702;2022-10-26T04:52:08;14.00;99.90
11055;DHT22;5580;50.106;8.702;2022-10-26T04:54:33;13.90;99.90
11055;DHT22;5580;50.106;8.702;2022-10-26T04:56:59;13.90;99.90
11055;DHT22;5580;50.106;8.702;2022-10-26T04:59:24;13.80;99.90
11055;DHT22;5580;50.106;8.702;2022-10-26T05:01:50;13.80;99.90
11055;DHT22;5580;50.106;8.702;2022-10-26T05:04:15;13.80;99.90
11055;DHT22;5580;50.106;8.702;2022-10-26T05:06:41;13.80;99.90
11055;DHT22;5580;50.106;8.702;2022-10-26T05:09:07;13.80;99.90
11055;DHT22;5580;50.106;8.702;2022-10-26T05:11:32;13.90;99.90
11055;DHT22;5580;50.106;8.702;2022-10-26T05:13:58;13.90;99.90
11055;DHT22;5580;50.106;8.702;2022-10-26T05:16:23;13.90;99.90
11055;DHT22;5580;50.106;8.702;2022-10-26T05:18:49;13.90;99.90
11055;DHT22;5580;50.106;8.702;2022-10-26T05:21:15;13.90;99.90
11055;DHT22;5580;50.106;8.702;2022-10-26T05:23:48;13.90;99.90
11055;DHT22;5580;50.106;8.702;2022-10-26T05:26:15;13.90;99.90
11055;DHT22;5580;50.106;8.702;2022-10-26T05:28:41;13.90;99.90
11055;DHT22;5580;50.106;8.702;2022-10-26T05:31:06;13.90;99.90
11055;DHT22;5580;50.106;8.702;2022-10-26T05:33:32;13.90;99.90
11055;DHT22;5580;50.106;8.702;2022-10-26T05:35:57;13.90;99.90
11055;DHT22;5580;50.106;8.702;2022-10-26T05:38:23;13.90;99.90
11055;DHT22;5580;50.106;8.702;2022-10-26T05:40:50;13.90;99.90
11055;DHT22;5580;50.106;8.702;2022-10-26T05:43:16;13.90;99.90
11055;DHT22;5580;50.106;8.702;2022-10-26T05:45:42;13.90;99.90
11055;DHT22;5580;50.106;8.702;2022-10-26T05:48:08;13.90;99.90
11055;DHT22;5580;50.106;8.702;2022-10-26T05:50:33;13.90;99.90
11055;DHT22;5580;50.106;8.702;2022-10-26T05:52:59;13.90;99.90
11055;DHT22;5580;50.106;8.702;2022-10-26T05:55:25;13.90;99.90
11055;DHT22;5580;50.106;8.702;2022-10-26T05:57:51;14.00;99.90
11055;DHT22;5580;50.106;8.702;2022-10-26T06:00:22;14.00;99.90
11055;DHT22;5580;50.106;8.702;2022-10-26T06:05:53;14.00;99.90
11055;DHT22;5580;50.106;8.702;2022-10-26T06:08:21;14.00;99.90
11055;DHT22;5580;50.106;8.702;2022-10-26T06:10:47;14.00;99.90
11055;DHT22;5580;50.106;8.702;2022-10-26T06:13:13;14.00;99.90
11055;DHT22;5580;50.106;8.702;2022-10-26T06:16:02;14.00;99.90
11055;DHT22;5580;50.106;8.702;2022-10-26T06:19:05;14.00;99.90
11055;DHT22;5580;50.106;8.702;2022-10-26T06:24:46;14.00;99.90
11055;DHT22;5580;50.106;8.702;2022-10-26T06:30:04;14.00;99.90
11055;DHT22;5580;50.106;8.702;2022-10-26T06:32:31;14.00;99.90
11055;DHT22;5580;50.106;8.702;2022-10-26T06:37:44;14.10;99.90
11055;DHT22;5580;50.106;8.702;2022-10-26T06:40:13;14.10;99.90
11055;DHT22;5580;50.106;8.702;2022-10-26T06:42:40;14.10;99.90
11055;DHT22;5580;50.106;8.702;2022-10-26T06:45:09;14.10;99.90
11055;DHT22;5580;50.106;8.702;2022-10-26T06:50:35;14.20;99.90
11055;DHT22;5580;50.106;8.702;2022-10-26T06:55:45;14.20;99.90
11055;DHT22;5580;50.106;8.702;2022-10-26T06:58:16;14.20;99.90
11055;DHT22;5580;50.106;8.702;2022-10-26T07:00:44;14.20;99.90
11055;DHT22;5580;50.106;8.702;2022-10-26T07:03:10;14.20;99.90
11055;DHT22;5580;50.106;8.702;2022-10-26T07:05:36;14.20;99.90
11055;DHT22;5580;50.106;8.702;2022-10-26T07:08:01;14.30;99.90
11055;DHT22;5580;50.106;8.702;2022-10-26T07:10:30;14.30;99.90
11055;DHT22;5580;50.106;8.702;2022-10-26T07:12:56;14.30;99.90
11055;DHT22;5580;50.106;8.702;2022-10-26T07:15:22;14.30;99.90
11055;DHT22;5580;50.106;8.702;2022-10-26T07:17:49;14.30;99.90
11055;DHT22;5580;50.106;8.702;2022-10-26T07:20:19;14.30;99.90
11055;DHT22;5580;50.106;8.702;2022-10-26T07:22:53;14.30;99.90
11055;DHT22;5580;50.106;8.702;2022-10-26T07:25:20;14.30;99.90
11055;DHT22;5580;50.106;8.702;2022-10-26T07:27:46;14.30;99.90
11055;DHT22;5580;50.106;8.702;2022-10-26T07:30:12;14.40;99.90
11055;DHT22;5580;50.106;8.702;2022-10-26T07:32:37;14.40;99.90
11055;DHT22;5580;50.106;8.702;2022-10-26T07:35:03;14.40;99.90
11055;DHT22;5580;50.106;8.702;2022-10-26T07:37:29;14.30;99.90
11055;DHT22;5580;50.106;8.702;2022-10-26T07:39:55;14.30;99.90
11055;DHT22;5580;50.106;8.702;2022-10-26T07:42:20;14.30;99.90
11055;DHT22;5580;50.106;8.702;2022-10-26T07:44:46;14.30;99.90
11055;DHT22;5580;50.106;8.702;2022-10-26T07:47:11;14.30;99.90
11055;DHT22;5580;50.106;8.702;2022-10-26T07:49:38;14.40;99.90
11055;DHT22;5580;50.106;8.702;2022-10-26T07:52:04;14.40;99.90
11055;DHT22;5580;50.106;8.702;2022-10-26T07:54:30;14.40;99.90
11055;DHT22;5580;50.106;8.702;2022-10-26T07:56:55;14.40;99.90
11055;DHT22;5580;50.106;8.702;2022-10-26T07:59:21;14.40;99.90
11055;DHT22;5580;50.106;8.702;2022-10-26T08:01:46;14.40;99.90
11055;DHT22;5580;50.106;8.702;2022-10-26T08:04:12;14.40;99.90
11055;DHT22;5580;50.106;8.702;2022-10-26T08:06:38;14.40;99.90
11055;DHT22;5580;50.106;8.702;2022-10-26T08:09:04;14.40;99.90
11055;DHT22;5580;50.106;8.702;2022-10-26T08:11:29;14.40;99.90
11055;DHT22;5580;50.106;8.702;2022-10-26T08:13:55;14.40;99.90
11055;DHT22;5580;50.106;8.702;2022-10-26T08:16:21;14.50;99.90
11055;DHT22;5580;50.106;8.702;2022-10-26T08:18:48;14.50;99.90
11055;DHT22;5580;50.106;8.702;2022-10-26T08:21:13;14.50;99.90
11055;DHT22;5580;50.106;8.702;2022-10-26T08:23:40;14.60;99.90
11055;DHT22;5580;50.106;8.702;2022-10-26T08:26:06;14.60;99.90
11055;DHT22;5580;50.106;8.702;2022-10-26T08:28:32;14.60;99.90
11055;DHT22;5580;50.106;8.702;2022-10-26T08:30:57;14.60;99.90
11055;DHT22;5580;50.106;8.702;2022-10-26T08:33:23;14.60;99.90
11055;DHT22;5580;50.106;8.702;2022-10-26T08:36:01;14.60;99.90
11055;DHT22;5580;50.106;8.702;2022-10-26T08:38:27;14.70;99.90
11055;DHT22;5580;50.106;8.702;2022-10-26T08:40:54;14.70;99.90
11055;DHT22;5580;50.106;8.702;2022-10-26T08:43:28;14.80;99.90
11055;DHT22;5580;50.106;8.702;2022-10-26T08:45:56;14.90;99.90
11055;DHT22;5580;50.106;8.702;2022-10-26T08:48:31;14.90;99.90
11055;DHT22;5580;50.106;8.702;2022-10-26T08:51:11;14.90;99.90
11055;DHT22;5580;50.106;8.702;2022-10-26T08:53:46;15.00;99.90
11055;DHT22;5580;50.106;8.702;2022-10-26T08:58:50;15.00;99.90
11055;DHT22;5580;50.106;8.702;2022-10-26T09:01:18;15.10;99.90
11055;DHT22;5580;50.106;8.702;2022-10-26T09:03:43;15.10;99.90
11055;DHT22;5580;50.106;8.702;2022-10-26T09:06:24;15.10;99.90
11055;DHT22;5580;50.106;8.702;2022-10-26T09:09:06;15.10;99.90
11055;DHT22;5580;50.106;8.702;2022-10-26T09:24:53;15.30;99.90
11055;DHT22;5580;50.106;8.702;2022-10-26T09:27:28;15.30;99.90
11055;DHT22;5580;50.106;8.702;2022-10-26T09:29:56;15.30;99.90
11055;DHT22;5580;50.106;8.702;2022-10-26T09:35:03;15.40;99.90
11055;DHT22;5580;50.106;8.702;2022-10-26T09:37:39;15.40;99.90
11055;DHT22;5580;50.106;8.702;2022-10-26T09:43:11;15.50;99.90
11055;DHT22;5580;50.106;8.702;2022-10-26T09:45:44;15.60;99.90
11055;DHT22;5580;50.106;8.702;2022-10-26T09:50:43;15.70;99.90
11055;DHT22;5580;50.106;8.702;2022-10-26T09:53:10;15.70;99.90
11055;DHT22;5580;50.106;8.702;2022-10-26T09:55:41;15.70;99.90
11055;DHT22;5580;50.106;8.702;2022-10-26T09:58:29;15.80;99.90
11055;DHT22;5580;50.106;8.702;2022-10-26T10:00:56;15.90;99.90
11055;DHT22;5580;50.106;8.702;2022-10-26T10:03:27;15.90;99.90
11055;DHT22;5580;50.106;8.702;2022-10-26T10:05:55;16.00;99.90
11055;DHT22;5580;50.106;8.702;2022-10-26T10:08:39;16.00;99.90
11055;DHT22;5580;50.106;8.702;2022-10-26T10:11:07;16.10;99.90
11055;DHT22;5580;50.106;8.702;2022-10-26T10:13:35;16.20;99.90
11055;DHT22;5580;50.106;8.702;2022-10-26T10:16:04;16.30;99.90
11055;DHT22;5580;50.106;8.702;2022-10-26T10:18:30;16.30;99.90
11055;DHT22;5580;50.106;8.702;2022-10-26T10:20:57;16.30;99.90
11055;DHT22;5580;50.106;8.702;2022-10-26T10:23:29;16.40;99.90
11055;DHT22;5580;50.106;8.702;2022-10-26T10:28:26;16.40;99.90
11055;DHT22;5580;50.106;8.702;2022-10-26T10:31:00;16.40;99.90
11055;DHT22;5580;50.106;8.702;2022-10-26T10:33:40;16.40;99.90
11055;DHT22;5580;50.106;8.702;2022-10-26T10:36:14;16.40;99.90
11055;DHT22;5580;50.106;8.702;2022-10-26T10:38:45;16.40;99.90
11055;DHT22;5580;50.106;8.702;2022-10-26T10:41:32;16.50;99.90
11055;DHT22;5580;50.106;8.702;2022-10-26T10:44:25;16.50;99.90
11055;DHT22;5580;50.106;8.702;2022-10-26T10:47:04;16.60;99.90
11055;DHT22;5580;50.106;8.702;2022-10-26T10:49:30;16.60;99.90
11055;DHT22;5580;50.106;8.702;2022-10-26T10:51:57;16.70;99.90
11055;DHT22;5580;50.106;8.702;2022-10-26T10:54:25;16.70;99.90
11055;DHT22;5580;50.106;8.702;2022-10-26T11:02:42;16.80;99.90
11055;DHT22;5580;50.106;8.702;2022-10-26T11:05:23;16.90;99.90
11055;DHT22;5580;50.106;8.702;2022-10-26T11:07:59;16.90;99.90
11055;DHT22;5580;50.106;8.702;2022-10-26T11:10:32;17.00;99.90
11055;DHT22;5580;50.106;8.702;2022-10-26T11:16:03;17.00;99.90
11055;DHT22;5580;50.106;8.702;2022-10-26T11:18:35;17.00;99.90
11055;DHT22;5580;50.106;8.702;2022-10-26T11:21:27;17.10;99.90
11055;DHT22;5580;50.106;8.702;2022-10-26T11:24:01;17.10;99.90
11055;DHT22;5580;50.106;8.702;2022-10-26T11:26:48;17.10;99.90
11055;DHT22;5580;50.106;8.702;2022-10-26T11:29:40;17.20;99.90
11055;DHT22;5580;50.106;8.702;2022-10-26T11:32:20;17.20;99.90
11055;DHT22;5580;50.106;8.702;2022-10-26T11:35:23;17.30;99.90
11055;DHT22;5580;50.106;8.702;2022-10-26T11:38:20;17.30;99.90
11055;DHT22;5580;50.106;8.702;2022-10-26T11:43:22;17.40;99.90
11055;DHT22;5580;50.106;8.702;2022-10-26T11:52:12;17.50;99.90
11055;DHT22;5580;50.106;8.702;2022-10-26T11:54:55;17.60;99.90
11055;DHT22;5580;50.106;8.702;2022-10-26T11:57:24;17.60;99.90
11055;DHT22;5580;50.106;8.702;2022-10-26T11:59:56;17.60;99.90
11055;DHT22;5580;50.106;8.702;2022-10-26T12:02:24;17.60;99.90
11055;DHT22;5580;50.106;8.702;2022-10-26T12:05:04;17.70;99.90
11055;DHT22;5580;50.106;8.702;2022-10-26T12:07:33;17.70;99.90
11055;DHT22;5580;50.106;8.702;2022-10-26T12:10:01;17.70;99.90
11055;DHT22;5580;50.106;8.702;2022-10-26T12:12:45;17.70;99.90
11055;DHT22;5580;50.106;8.702;2022-10-26T12:23:11;17.70;99.90
11055;DHT22;5580;50.106;8.702;2022-10-26T12:25:37;17.70;99.90
11055;DHT22;5580;50.106;8.702;2022-10-26T12:28:03;17.70;99.90
11055;DHT22;5580;50.106;8.702;2022-10-26T12:30:33;17.80;99.90
11055;DHT22;5580;50.106;8.702;2022-10-26T12:33:02;17.80;99.90
11055;DHT22;5580;50.106;8.702;2022-10-26T12:37:57;17.80;99.90
11055;DHT22;5580;50.106;8.702;2022-10-26T12:45:45;17.90;99.90
11055;DHT22;5580;50.106;8.702;2022-10-26T12:48:39;17.90;99.90
11055;DHT22;5580;50.106;8.702;2022-10-26T12:56:56;17.90;99.90
11055;DHT22;5580;50.106;8.702;2022-10-26T12:59:39;17.90;99.90
11055;DHT22;5580;50.106;8.702;2022-10-26T13:07:37;18.10;99.90
11055;DHT22;5580;50.106;8.702;2022-10-26T13:12:44;18.10;99.90
11055;DHT22;5580;50.106;8.702;2022-10-26T13:15:28;18.10;99.90
11055;DHT22;5580;50.106;8.702;2022-10-26T13:20:33;18.20;99.90
11055;DHT22;5580;50.106;8.702;2022-10-26T13:23:01;18.30;99.90
11055;DHT22;5580;50.106;8.702;2022-10-26T13:25:29;18.30;99.90
11055;DHT22;5580;50.106;8.702;2022-10-26T13:30:46;18.40;99.90
11055;DHT22;5580;50.106;8.702;2022-10-26T13:33:24;18.40;99.90
11055;DHT22;5580;50.106;8.702;2022-10-26T13:35:55;18.40;99.90
11055;DHT22;5580;50.106;8.702;2022-10-26T13:38:24;18.40;99.90
11055;DHT22;5580;50.106;8.702;2022-10-26T13:40:59;18.40;99.90
11055;DHT22;5580;50.106;8.702;2022-10-26T13:43:27;18.50;99.90
11055;DHT22;5580;50.106;8.702;2022-10-26T13:45:55;18.50;99.90
11055;DHT22;5580;50.106;8.702;2022-10-26T13:48:35;18.50;99.90
11055;DHT22;5580;50.106;8.702;2022-10-26T13:51:04;18.50;99.90
11055;DHT22;5580;50.106;8.702;2022-10-26T13:53:41;18.50;99.90
11055;DHT22;5580;50.106;8.702;2022-10-26T13:56:28;18.50;99.90
11055;DHT22;5580;50.106;8.702;2022-10-26T13:59:03;18.50;99.90
11055;DHT22;5580;50.106;8.702;2022-10-26T14:01:30;18.50;99.90
11055;DHT22;5580;50.106;8.702;2022-10-26T14:03:56;18.50;99.90
11055;DHT22;5580;50.106;8.702;2022-10-26T14:06:37;18.60;99.90
11055;DHT22;5580;50.106;8.702;2022-10-26T14:09:05;18.60;99.90
11055;DHT22;5580;50.106;8.702;2022-10-26T14:11:52;18.60;99.90
11055;DHT22;5580;50.106;8.702;2022-10-26T14:14:28;18.60;99.90
11055;DHT22;5580;50.106;8.702;2022-10-26T14:16:54;18.60;99.90
11055;DHT22;5580;50.106;8.702;2022-10-26T14:19:40;18.60;99.90
11055;DHT22;5580;50.106;8.702;2022-10-26T14:22:25;18.70;99.90
11055;DHT22;5580;50.106;8.702;2022-10-26T14:25:01;18.70;99.90
11055;DHT22;5580;50.106;8.702;2022-10-26T14:27:31;18.70;99.90
11055;DHT22;5580;50.106;8.702;2022-10-26T14:29:57;18.70;99.90
11055;DHT22;5580;50.106;8.702;2022-10-26T14:32:31;18.70;99.90
11055;DHT22;5580;50.106;8.702;2022-10-26T14:34:58;18.70;99.90
11055;DHT22;5580;50.106;8.702;2022-10-26T14:37:34;18.70;99.90
11055;DHT22;5580;50.106;8.702;2022-10-26T14:40:02;18.80;99.90
11055;DHT22;5580;50.106;8.702;2022-10-26T14:42:30;18.70;99.90
11055;DHT22;5580;50.106;8.702;2022-10-26T14:44:57;18.70;99.90
11055;DHT22;5580;50.106;8.702;2022-10-26T14:47:27;18.70;99.90
11055;DHT22;5580;50.106;8.702;2022-10-26T14:49:53;18.80;99.90
11055;DHT22;5580;50.106;8.702;2022-10-26T14:52:33;18.70;99.90
11055;DHT22;5580;50.106;8.702;2022-10-26T14:57:34;18.70;99.90
11055;DHT22;5580;50.106;8.702;2022-10-26T15:00:13;18.80;99.90
11055;DHT22;5580;50.106;8.702;2022-10-26T15:02:40;18.70;99.90
11055;DHT22;5580;50.106;8.702;2022-10-26T15:05:20;18.70;99.90
11055;DHT22;5580;50.106;8.702;2022-10-26T15:07:46;18.80;99.90
11055;DHT22;5580;50.106;8.702;2022-10-26T15:13:19;18.80;99.90
11055;DHT22;5580;50.106;8.702;2022-10-26T15:15:45;18.80;99.90
11055;DHT22;5580;50.106;8.702;2022-10-26T15:18:20;18.70;99.90
11055;DHT22;5580;50.106;8.702;2022-10-26T15:20:48;18.70;99.90
11055;DHT22;5580;50.106;8.702;2022-10-26T15:23:15;18.80;99.90
11055;DHT22;5580;50.106;8.702;2022-10-26T15:25:58;18.70;99.90
11055;DHT22;5580;50.106;8.702;2022-10-26T15:28:38;18.70;99.90
11055;DHT22;5580;50.106;8.702;2022-10-26T15:33:35;18.70;99.90
11055;DHT22;5580;50.106;8.702;2022-10-26T15:36:23;18.70;99.90
11055;DHT22;5580;50.106;8.702;2022-10-26T15:38:49;18.80;99.90
11055;DHT22;5580;50.106;8.702;2022-10-26T15:41:25;18.70;99.90
11055;DHT22;5580;50.106;8.702;2022-10-26T15:43:56;18.80;99.90
11055;DHT22;5580;50.106;8.702;2022-10-26T15:46:23;18.80;99.90
11055;DHT22;5580;50.106;8.702;2022-10-26T15:49:06;18.80;99.90
11055;DHT22;5580;50.106;8.702;2022-10-26T15:51:38;18.70;99.90
11055;DHT22;5580;50.106;8.702;2022-10-26T15:54:04;18.70;99.90
11055;DHT22;5580;50.106;8.702;2022-10-26T15:56:30;18.70;99.90
11055;DHT22;5580;50.106;8.702;2022-10-26T15:58:56;18.70;99.90
11055;DHT22;5580;50.106;8.702;2022-10-26T16:01:24;18.70;99.90
11055;DHT22;5580;50.106;8.702;2022-10-26T16:03:51;18.70;99.90
11055;DHT22;5580;50.106;8.702;2022-10-26T16:11:16;18.70;99.90
11055;DHT22;5580;50.106;8.702;2022-10-26T16:13:42;18.60;99.90
11055;DHT22;5580;50.106;8.702;2022-10-26T16:16:17;18.60;99.90
11055;DHT22;5580;50.106;8.702;2022-10-26T16:18:43;18.60;99.90
11055;DHT22;5580;50.106;8.702;2022-10-26T16:21:12;18.50;99.90
11055;DHT22;5580;50.106;8.702;2022-10-26T16:23:38;18.50;99.90
11055;DHT22;5580;50.106;8.702;2022-10-26T16:26:05;18.50;99.90
11055;DHT22;5580;50.106;8.702;2022-10-26T16:28:31;18.50;99.90
11055;DHT22;5580;50.106;8.702;2022-10-26T16:31:01;18.50;99.90
11055;DHT22;5580;50.106;8.702;2022-10-26T16:33:27;18.50;99.90
11055;DHT22;5580;50.106;8.702;2022-10-26T16:35:56;18.50;99.90
11055;DHT22;5580;50.106;8.702;2022-10-26T16:38:22;18.40;99.90
11055;DHT22;5580;50.106;8.702;2022-10-26T16:40:48;18.40;99.90
11055;DHT22;5580;50.106;8.702;2022-10-26T16:43:14;18.40;99.90
11055;DHT22;5580;50.106;8.702;2022-10-26T16:45:40;18.30;99.90
11055;DHT22;5580;50.106;8.702;2022-10-26T16:48:07;18.30;99.90
11055;DHT22;5580;50.106;8.702;2022-10-26T16:50:38;18.30;99.90
11055;DHT22;5580;50.106;8.702;2022-10-26T16:53:04;18.30;99.90
11055;DHT22;5580;50.106;8.702;2022-10-26T16:55:29;18.20;99.90
11055;DHT22;5580;50.106;8.702;2022-10-26T16:57:55;18.20;99.90
11055;DHT22;5580;50.106;8.702;2022-10-26T17:00:21;18.20;99.90
11055;DHT22;5580;50.106;8.702;2022-10-26T17:02:46;18.10;99.90
11055;DHT22;5580;50.106;8.702;2022-10-26T17:05:12;18.10;99.90
11055;DHT22;5580;50.106;8.702;2022-10-26T17:07:37;18.10;99.90
11055;DHT22;5580;50.106;8.702;2022-10-26T17:10:03;18.10;99.90
11055;DHT22;5580;50.106;8.702;2022-10-26T17:12:29;18.10;99.90
11055;DHT22;5580;50.106;8.702;2022-10-26T17:14:55;18.10;99.90
11055;DHT22;5580;50.106;8.702;2022-10-26T17:17:22;18.00;99.90
11055;DHT22;5580;50.106;8.702;2022-10-26T17:19:48;18.10;99.90
11055;DHT22;5580;50.106;8.702;2022-10-26T17:22:13;18.00;99.90
11055;DHT22;5580;50.106;8.702;2022-10-26T17:24:39;18.00;99.90
11055;DHT22;5580;50.106;8.702;2022-10-26T17:27:05;18.00;99.90
11055;DHT22;5580;50.106;8.702;2022-10-26T17:29:30;18.00;99.90
11055;DHT22;5580;50.106;8.702;2022-10-26T17:31:56;17.90;99.90
11055;DHT22;5580;50.106;8.702;2022-10-26T17:34:21;17.90;99.90
11055;DHT22;5580;50.106;8.702;2022-10-26T17:36:47;17.90;99.90
11055;DHT22;5580;50.106;8.702;2022-10-26T17:39:12;17.90;99.90
11055;DHT22;5580;50.106;8.702;2022-10-26T17:41:38;17.90;99.90
11055;DHT22;5580;50.106;8.702;2022-10-26T17:44:03;17.90;99.90
11055;DHT22;5580;50.106;8.702;2022-10-26T17:46:29;17.90;99.90
11055;DHT22;5580;50.106;8.702;2022-10-26T17:48:56;18.00;99.90
11055;DHT22;5580;50.106;8.702;2022-10-26T17:51:22;18.00;99.90
11055;DHT22;5580;50.106;8.702;2022-10-26T17:53:49;18.00;99.90
11055;DHT22;5580;50.106;8.702;2022-10-26T17:58:42;18.00;99.90
11055;DHT22;5580;50.106;8.702;2022-10-26T18:01:10;17.90;99.90
11055;DHT22;5580;50.106;8.702;2022-10-26T18:03:37;17.90;99.90
11055;DHT22;5580;50.106;8.702;2022-10-26T18:06:04;17.90;99.90
11055;DHT22;5580;50.106;8.702;2022-10-26T18:08:35;17.90;99.90
11055;DHT22;5580;50.106;8.702;2022-10-26T18:11:02;17.90;99.90
11055;DHT22;5580;50.106;8.702;2022-10-26T18:13:29;17.90;99.90
11055;DHT22;5580;50.106;8.702;2022-10-26T18:16:08;17.90;99.90
11055;DHT22;5580;50.106;8.702;2022-10-26T18:18:34;17.90;99.90